Time;durP1;ratioP1;P1;durP2;ratioP2;P2;SDS_P1;SDS_P2;PMS_P1;PMS_P2;Temp;Humidity;BMP_temperature;BMP_pressure;BME280_temperature;BME280_humidity;BME280_pressure;Samples;Min_cycle;Max_cycle;Signal;HPM_P1;HPM_P2
2020/12/11 00:00:20;;;;;;;25.83;8.93;;;;;;;-5.05;47.43;101592.31;5032094;28;20045;-61
2020/12/11 00:02:46;;;;;;;13.00;5.65;;;;;;;-4.94;47.66;101602.88;5032963;28;20049;-61
2020/12/11 00:05:12;;;;;;;22.83;9.32;;;;;;;-5.12;47.84;101588.72;5032250;28;20116;-60
2020/12/11 00:07:38;;;;;;;33.55;10.30;;;;;;;-5.09;47.91;101594.00;5031940;28;20040;-53
2020/12/11 00:10:05;;;;;;;21.23;9.73;;;;;;;-5.16;48.49;101609.59;5033101;28;20040;-63
2020/12/11 00:12:31;;;;;;;20.55;9.38;;;;;;;-5.14;48.38;101613.97;5030780;28;20073;-62
2020/12/11 00:14:56;;;;;;;24.10;10.02;;;;;;;-5.38;49.01;101581.44;5031048;28;20417;-62
2020/12/11 00:17:22;;;;;;;22.90;9.75;;;;;;;-5.29;48.85;101601.56;5032168;28;20485;-61
2020/12/11 00:19:48;;;;;;;30.92;10.02;;;;;;;-5.32;48.62;101580.66;5031551;28;20099;-61
2020/12/11 00:22:14;;;;;;;22.73;8.85;;;;;;;-5.33;48.51;101589.34;5031881;28;20377;-63
2020/12/11 00:24:42;;;;;;;18.58;9.48;;;;;;;-5.77;48.91;101499.16;5031000;28;20029;-62
2020/12/11 00:27:08;;;;;;;26.10;10.73;;;;;;;-5.96;48.93;101487.56;5031826;28;20430;-61
2020/12/11 00:29:33;;;;;;;20.70;9.32;;;;;;;-5.43;49.54;101609.22;5032564;28;20041;-62
2020/12/11 00:32:06;;;;;;;31.38;10.40;;;;;;;-5.44;49.45;101597.03;5031861;28;20033;-62
2020/12/11 00:34:31;;;;;;;25.00;10.00;;;;;;;-5.58;49.56;101590.72;5031446;28;20464;-63
2020/12/11 00:36:57;;;;;;;23.23;10.38;;;;;;;-5.56;49.79;101587.28;5030777;28;20029;-63
2020/12/11 00:39:23;;;;;;;25.48;9.80;;;;;;;-5.64;49.43;101584.56;5032151;28;20036;-62
2020/12/11 00:41:49;;;;;;;21.83;10.95;;;;;;;-5.69;50.06;101557.53;5042096;28;20116;-61
2020/12/11 00:44:14;;;;;;;18.88;8.50;;;;;;;-5.56;49.73;101584.69;5051022;28;20043;-61
2020/12/11 00:46:40;;;;;;;22.88;8.85;;;;;;;-5.64;49.76;101563.69;5051702;28;20029;-57
2020/12/11 00:49:06;;;;;;;22.95;9.50;;;;;;;-5.61;50.31;101575.91;5050394;28;20476;-59
2020/12/11 00:51:31;;;;;;;26.33;10.48;;;;;;;-5.96;50.11;101519.75;5030938;28;20112;-63
2020/12/11 00:53:57;;;;;;;26.90;10.70;;;;;;;-5.54;50.08;101579.50;5031412;28;20044;-61
2020/12/11 00:56:23;;;;;;;21.85;9.25;;;;;;;-5.56;50.36;101575.94;5046931;28;20404;-62
2020/12/11 00:58:48;;;;;;;25.98;10.50;;;;;;;-5.65;50.18;101553.25;5052058;28;20139;-62
2020/12/11 01:01:14;;;;;;;25.17;10.10;;;;;;;-5.76;50.33;101550.47;5051262;28;20035;-60
2020/12/11 01:03:39;;;;;;;23.20;9.73;;;;;;;-5.54;49.96;101563.81;5013140;28;20037;-62
2020/12/11 01:06:05;;;;;;;23.55;10.05;;;;;;;-5.50;49.78;101555.19;5031031;28;20437;-62
2020/12/11 01:08:30;;;;;;;24.73;10.05;;;;;;;-5.61;49.95;101557.63;5029656;28;20053;-64
2020/12/11 01:10:55;;;;;;;24.85;9.60;;;;;;;-5.64;50.47;101574.13;5031000;28;20196;-63
2020/12/11 01:13:21;;;;;;;22.33;9.70;;;;;;;-5.64;50.32;101555.84;5030620;28;20116;-63
2020/12/11 01:15:46;;;;;;;22.02;10.20;;;;;;;-5.59;50.38;101547.19;5030042;28;20047;-61
2020/12/11 01:18:12;;;;;;;22.40;9.80;;;;;;;-5.85;50.05;101500.75;5031869;28;20091;-57
2020/12/11 01:20:37;;;;;;;24.05;9.80;;;;;;;-5.56;50.39;101550.75;5031603;28;20036;-61
2020/12/11 01:23:03;;;;;;;20.95;9.88;;;;;;;-5.61;50.89;101557.63;5031589;28;20037;-62
2020/12/11 01:25:28;;;;;;;20.92;9.68;;;;;;;-5.69;50.35;101531.44;5030120;28;20029;-63
2020/12/11 01:27:54;;;;;;;20.45;9.73;;;;;;;-5.60;50.73;101545.44;5028928;28;20044;-63
2020/12/11 01:30:19;;;;;;;25.05;9.60;;;;;;;-5.59;50.77;101557.66;5030501;28;20041;-61
2020/12/11 01:32:44;;;;;;;20.88;9.93;;;;;;;-5.67;50.93;101537.53;5030280;28;20057;-63
2020/12/11 01:35:10;;;;;;;23.98;9.98;;;;;;;-5.67;51.13;101544.47;5030913;28;20167;-62
2020/12/11 01:37:35;;;;;;;22.88;10.18;;;;;;;-5.67;51.08;101524.50;5031595;28;20038;-60
2020/12/11 01:40:01;;;;;;;22.85;9.27;;;;;;;-5.59;51.10;101534.16;5030650;28;20397;-61
2020/12/11 01:42:26;;;;;;;20.35;9.27;;;;;;;-5.75;51.19;101518.31;5030861;28;20413;-62
2020/12/11 01:44:54;;;;;;;21.55;9.75;;;;;;;-5.62;51.17;101532.41;5029992;28;20032;-62
2020/12/11 01:47:20;;;;;;;19.98;9.55;;;;;;;-5.79;50.92;101521.69;5030576;28;20467;-60
2020/12/11 01:49:46;;;;;;;21.05;8.98;;;;;;;-5.67;51.29;101547.97;5029916;28;20414;-61
2020/12/11 01:52:16;;;;;;;24.42;10.75;;;;;;;-5.64;51.42;101511.50;5029368;28;20080;-63
2020/12/11 01:54:43;;;;;;;26.30;10.32;;;;;;;-5.50;51.18;101523.84;5030768;28;20036;-61
2020/12/11 01:57:28;;;;;;;21.27;9.48;;;;;;;-5.62;51.66;101529.78;5030355;28;20053;-62
2020/12/11 01:59:55;;;;;;;26.30;10.65;;;;;;;-5.60;51.10;101514.13;5030223;28;20064;-59
2020/12/11 02:02:21;;;;;;;20.17;8.48;;;;;;;-5.43;50.78;101520.47;5029606;28;20033;-59
2020/12/11 02:04:48;;;;;;;23.80;10.05;;;;;;;-5.44;50.82;101526.53;5029849;28;20123;-63
2020/12/11 02:07:13;;;;;;;25.80;10.00;;;;;;;-5.43;50.54;101520.47;5029911;28;20443;-63
2020/12/11 02:09:39;;;;;;;26.88;10.00;;;;;;;-5.47;50.88;101519.53;5029957;28;20033;-63
2020/12/11 02:12:05;;;;;;;24.77;10.68;;;;;;;-5.47;51.01;101526.50;5029861;28;20044;-62
2020/12/11 02:14:32;;;;;;;21.20;10.13;;;;;;;-5.58;51.25;101522.84;5030319;28;20029;-62
2020/12/11 02:17:03;;;;;;;25.42;8.93;;;;;;;-5.66;51.82;101514.94;5029721;28;20033;-55
2020/12/11 02:19:33;;;;;;;24.90;10.52;;;;;;;-5.77;51.33;101483.50;5029913;28;20076;-60
2020/12/11 02:22:07;;;;;;;29.02;9.48;;;;;;;-6.03;51.62;101442.28;5030273;28;20029;-63
2020/12/11 02:24:33;;;;;;;20.77;7.87;;;;;;;-5.58;51.44;101525.47;5030447;28;20536;-63
2020/12/11 02:27:00;;;;;;;20.40;10.07;;;;;;;-5.60;51.14;101521.97;5029485;28;20117;-62
2020/12/11 02:29:27;;;;;;;23.15;10.07;;;;;;;-5.69;51.75;101517.50;5029103;28;20041;-63
2020/12/11 02:31:53;;;;;;;24.65;9.95;;;;;;;-5.71;52.17;101519.19;5029497;28;20042;-63
2020/12/11 02:34:22;;;;;;;18.80;9.75;;;;;;;-5.74;52.17;101521.78;5030224;28;20116;-62
2020/12/11 02:36:48;;;;;;;24.38;10.32;;;;;;;-6.01;52.02;101479.72;5030328;28;20047;-61
2020/12/11 02:39:13;;;;;;;20.90;10.10;;;;;;;-5.87;52.26;101498.13;5028158;28;20033;-62
2020/12/11 02:41:39;;;;;;;23.25;9.70;;;;;;;-5.77;52.34;101517.41;5029192;28;20037;-62
2020/12/11 02:44:05;;;;;;;21.88;9.60;;;;;;;-5.81;52.14;101503.44;5033384;28;20492;-61
2020/12/11 02:46:31;;;;;;;20.15;9.00;;;;;;;-5.82;51.85;101490.34;5034212;28;20087;-63
2020/12/11 02:48:57;;;;;;;20.00;8.95;;;;;;;-5.59;51.65;101505.44;5033818;28;20075;-62
2020/12/11 02:51:22;;;;;;;22.98;9.82;;;;;;;-5.69;51.78;101497.50;5033919;28;20045;-62
2020/12/11 02:53:49;;;;;;;14.75;7.25;;;;;;;-5.55;51.52;101507.22;5033191;28;20112;-61
2020/12/11 02:56:22;;;;;;;21.38;10.18;;;;;;;-5.60;51.88;101506.31;5033214;28;20041;-62
2020/12/11 02:58:48;;;;;;;23.10;9.40;;;;;;;-5.49;51.08;101515.16;5037245;28;20536;-60
2020/12/11 03:01:13;;;;;;;16.42;8.32;;;;;;;-5.78;51.50;101481.75;5053871;28;20049;-62
2020/12/11 03:03:39;;;;;;;23.63;9.82;;;;;;;-5.71;51.51;101520.09;5053311;28;20060;-61
2020/12/11 03:06:05;;;;;;;17.60;9.32;;;;;;;-5.66;51.56;101513.19;5033144;28;20025;-63
2020/12/11 03:08:31;;;;;;;21.30;8.95;;;;;;;-5.83;51.68;101468.63;5032763;28;20067;-62
2020/12/11 03:10:56;;;;;;;20.88;9.00;;;;;;;-5.79;51.48;101490.41;5033194;28;20089;-63
2020/12/11 03:13:22;;;;;;;28.38;10.93;;;;;;;-5.69;52.02;101513.16;5032938;28;20545;-62
2020/12/11 03:15:48;;;;;;;21.30;9.38;;;;;;;-5.68;51.84;101511.41;5033757;28;20029;-58
2020/12/11 03:18:13;;;;;;;20.30;9.25;;;;;;;-5.76;51.83;101509.59;5033188;28;20033;-63
2020/12/11 03:20:39;;;;;;;19.77;9.60;;;;;;;-5.66;51.88;101518.41;5032688;28;20072;-63
2020/12/11 03:23:04;;;;;;;21.00;9.40;;;;;;;-5.77;51.84;101504.38;5014765;28;20120;-62
2020/12/11 03:25:30;;;;;;;27.73;10.75;;;;;;;-5.81;51.99;101489.50;5032978;28;20041;-61
2020/12/11 03:27:55;;;;;;;24.90;9.85;;;;;;;-5.77;52.20;101506.97;5033078;28;20040;-65
2020/12/11 03:30:21;;;;;;;21.40;8.93;;;;;;;-5.90;52.07;101487.66;5032303;28;20056;-62
2020/12/11 03:32:46;;;;;;;24.85;9.90;;;;;;;-5.78;52.51;101502.63;5032590;28;20112;-62
2020/12/11 03:35:12;;;;;;;25.35;9.85;;;;;;;-5.80;52.33;101518.22;5033106;28;20045;-63
2020/12/11 03:37:37;;;;;;;24.08;9.38;;;;;;;-5.82;52.08;101501.69;5032994;28;20041;-63
2020/12/11 03:40:05;;;;;;;26.20;10.43;;;;;;;-5.72;52.34;101507.00;5032782;28;20055;-60
2020/12/11 03:42:30;;;;;;;25.27;10.52;;;;;;;-5.87;52.18;101465.94;5033085;28;20048;-61
2020/12/11 03:44:56;;;;;;;26.85;10.48;;;;;;;-5.69;52.12;101492.28;5032005;28;20400;-63
2020/12/11 03:47:21;;;;;;;27.25;10.30;;;;;;;-5.89;52.09;101472.88;5032531;28;20097;-61
2020/12/11 03:49:47;;;;;;;24.50;8.85;;;;;;;-5.86;52.95;101506.81;5032809;28;20524;-62
2020/12/11 03:52:12;;;;;;;24.75;9.90;;;;;;;-5.98;52.88;101503.19;5032717;28;20041;-62
2020/12/11 03:54:38;;;;;;;21.83;8.85;;;;;;;-5.96;53.08;101511.03;5031024;28;20112;-62
2020/12/11 03:57:03;;;;;;;27.52;10.52;;;;;;;-5.92;52.69;101511.09;5031857;28;20050;-63
2020/12/11 03:59:28;;;;;;;23.88;9.35;;;;;;;-5.89;52.82;101512.91;5032073;28;20102;-62
2020/12/11 04:01:54;;;;;;;23.10;9.70;;;;;;;-5.62;52.24;101517.59;5032760;28;20119;-62
2020/12/11 04:04:19;;;;;;;30.25;10.60;;;;;;;-5.87;52.23;101490.31;5032391;28;20061;-63
2020/12/11 04:06:45;;;;;;;24.52;10.77;;;;;;;-5.69;52.07;101507.94;5031527;28;20042;-63
2020/12/11 04:09:10;;;;;;;22.73;9.77;;;;;;;-5.81;52.32;101486.88;5032065;28;20041;-62
2020/12/11 04:11:36;;;;;;;21.65;9.48;;;;;;;-6.25;52.11;101412.44;5032152;28;20060;-60
2020/12/11 04:14:03;;;;;;;23.85;10.10;;;;;;;-5.80;52.10;101479.09;5032364;28;20025;-61
2020/12/11 04:16:28;;;;;;;28.88;11.07;;;;;;;-5.66;51.50;101489.72;5032379;28;20064;-63
2020/12/11 04:18:54;;;;;;;22.25;9.00;;;;;;;-5.70;51.89;101487.94;5032510;28;20477;-58
2020/12/11 04:21:19;;;;;;;23.08;9.95;;;;;;;-5.79;52.06;101496.50;5032231;28;20033;-63
2020/12/11 04:23:45;;;;;;;16.23;7.68;;;;;;;-5.80;52.39;101483.44;5031262;28;20041;-63
2020/12/11 04:26:11;;;;;;;22.33;10.50;;;;;;;-6.21;52.06;101441.19;5031884;28;20048;-63
2020/12/11 04:28:36;;;;;;;19.30;9.45;;;;;;;-5.67;51.90;101501.00;5014640;28;20037;-61
2020/12/11 04:31:02;;;;;;;18.75;10.48;;;;;;;-5.69;51.51;101486.19;5032627;28;20033;-61
2020/12/11 04:33:27;;;;;;;24.27;10.00;;;;;;;-5.67;51.93;101498.41;5031607;28;20044;-63
2020/12/11 04:35:53;;;;;;;22.25;9.73;;;;;;;-5.51;51.35;101498.63;5030937;28;20033;-56
2020/12/11 04:38:18;;;;;;;24.13;9.80;;;;;;;-5.80;51.35;101471.28;5031851;28;20052;-60
2020/12/11 04:40:44;;;;;;;23.98;10.40;;;;;;;-5.66;51.34;101497.53;5032099;28;20033;-62
2020/12/11 04:43:11;;;;;;;20.40;9.75;;;;;;;-5.70;51.62;101490.53;5031922;28;20416;-62
2020/12/11 04:45:40;;;;;;;21.88;10.13;;;;;;;-5.79;51.40;101480.84;5030904;28;20045;-61
2020/12/11 04:48:10;;;;;;;22.10;9.63;;;;;;;-5.75;51.89;101484.38;5030823;28;20572;-60
2020/12/11 04:50:37;;;;;;;23.48;10.18;;;;;;;-5.73;51.70;101493.13;5031481;28;20033;-64
2020/12/11 04:53:04;;;;;;;17.90;8.82;;;;;;;-5.76;51.67;101495.69;5031586;28;20060;-59
2020/12/11 04:55:34;;;;;;;21.80;9.73;;;;;;;-5.74;51.93;101503.50;5031358;28;20350;-61
2020/12/11 04:58:05;;;;;;;19.70;9.57;;;;;;;-5.63;51.37;101500.19;5030358;28;20053;-62
2020/12/11 05:00:31;;;;;;;20.33;9.38;;;;;;;-6.06;51.58;101437.91;5030418;28;20508;-59
2020/12/11 05:02:56;;;;;;;21.15;8.05;;;;;;;-5.87;51.81;101477.28;5031632;28;20068;-59
2020/12/11 05:05:22;;;;;;;23.73;10.13;;;;;;;-5.74;51.63;101501.78;5031123;28;20087;-60
2020/12/11 05:07:47;;;;;;;20.23;8.73;;;;;;;-5.82;51.74;101500.78;5030337;28;20025;-60
2020/12/11 05:10:13;;;;;;;22.00;9.63;;;;;;;-5.80;52.12;101506.91;5030234;28;20124;-62
2020/12/11 05:12:39;;;;;;;22.17;9.60;;;;;;;-5.76;51.83;101508.72;5030005;28;20029;-59
2020/12/11 05:15:09;;;;;;;22.05;8.65;;;;;;;-5.82;52.26;101504.28;5029977;28;20033;-59
2020/12/11 05:17:39;;;;;;;21.17;9.90;;;;;;;-5.81;52.12;101502.53;5031063;28;20056;-61
2020/12/11 05:20:07;;;;;;;23.90;9.95;;;;;;;-5.73;51.86;101498.31;5031040;28;20433;-59
2020/12/11 05:22:38;;;;;;;21.80;9.90;;;;;;;-5.75;51.84;101515.69;5030906;28;20033;-60
2020/12/11 05:25:13;;;;;;;26.45;9.82;;;;;;;-5.66;51.88;101530.59;5030398;28;20148;-60
2020/12/11 05:27:45;;;;;;;17.77;8.90;;;;;;;-5.64;51.78;101516.72;5027654;28;20037;-63
2020/12/11 05:30:13;;;;;;;19.27;8.60;;;;;;;-5.82;51.20;101459.06;5031268;28;20071;-63
2020/12/11 05:32:40;;;;;;;20.70;9.38;;;;;;;-5.31;50.84;101509.28;5030276;28;20041;-57
2020/12/11 05:35:14;;;;;;;21.27;9.10;;;;;;;-5.15;50.05;101512.09;5030111;28;20497;-61
2020/12/11 05:37:46;;;;;;;23.10;10.45;;;;;;;-5.01;49.64;101514.88;5030638;28;20131;-64
2020/12/11 05:40:26;;;;;;;30.02;10.05;;;;;;;-4.90;49.53;101515.84;5025287;28;20050;-63
2020/12/11 05:43:19;;;;;;;18.77;9.25;;;;;;;-4.92;49.65;101491.44;5030463;28;20040;-62
2020/12/11 05:45:52;;;;;;;23.02;11.02;;;;;;;-4.83;49.25;101512.41;5030383;28;20064;-63
2020/12/11 05:48:19;;;;;;;22.80;10.43;;;;;;;-4.82;49.55;101535.13;4995700;28;20040;-61
2020/12/11 05:50:44;;;;;;;19.83;9.70;;;;;;;-4.84;48.82;101510.66;5028323;28;20087;-63
2020/12/11 05:53:10;;;;;;;22.08;9.20;;;;;;;-4.71;49.23;101521.25;5030131;28;20504;-63
2020/12/11 05:55:36;;;;;;;20.40;9.77;;;;;;;-4.68;48.93;101508.22;5030978;28;20065;-62
2020/12/11 05:58:02;;;;;;;19.40;8.70;;;;;;;-4.72;48.86;101488.16;5029720;28;20053;-56
2020/12/11 06:00:27;;;;;;;21.02;9.98;;;;;;;-4.47;48.31;101516.25;5029692;28;20504;-58
2020/12/11 06:02:54;;;;;;;22.33;10.25;;;;;;;-4.47;48.28;101515.38;5012039;28;20056;-61
2020/12/11 06:05:22;;;;;;;23.73;10.20;;;;;;;-4.41;48.51;101517.19;5030463;28;20037;-57
2020/12/11 06:07:49;;;;;;;24.80;10.77;;;;;;;-4.35;48.37;101509.38;5030145;28;20076;-61
2020/12/11 06:10:23;;;;;;;18.85;8.70;;;;;;;-4.24;47.91;101506.84;5029811;28;20037;-60
2020/12/11 06:12:50;;;;;;;22.40;9.90;;;;;;;-4.19;47.87;101513.88;5029577;28;20048;-60
2020/12/11 06:15:21;;;;;;;24.73;9.90;;;;;;;-5.01;47.45;101359.00;5029031;28;20045;-60
2020/12/11 06:17:57;;;;;;;21.92;10.48;;;;;;;-4.04;47.74;101518.34;5028354;28;20061;-59
2020/12/11 06:20:23;;;;;;;25.75;10.27;;;;;;;-4.00;47.09;101493.09;5025822;28;20037;-60
2020/12/11 06:22:48;;;;;;;30.42;11.82;;;;;;;-3.79;46.98;101520.25;5029854;28;20029;-60
2020/12/11 06:25:31;;;;;;;22.20;10.48;;;;;;;-3.68;46.88;101502.84;5030261;28;20109;-60
2020/12/11 06:27:58;;;;;;;21.98;9.55;;;;;;;-3.49;46.89;101502.97;5028543;28;20050;-61
2020/12/11 06:30:32;;;;;;;24.92;10.68;;;;;;;-3.37;46.58;101502.13;5029168;28;20033;-60
2020/12/11 06:32:59;;;;;;;24.05;10.63;;;;;;;-3.25;46.35;101511.78;5030113;28;20489;-60
2020/12/11 06:35:26;;;;;;;21.38;9.23;;;;;;;-3.08;45.87;101493.50;5030513;28;20033;-59
2020/12/11 06:37:52;;;;;;;24.45;10.77;;;;;;;-3.36;45.34;101439.31;5029155;28;20037;-58
2020/12/11 06:40:49;;;;;;;26.05;11.85;;;;;;;-2.45;44.73;101508.47;5029077;28;20037;-62
2020/12/11 06:43:44;;;;;;;24.25;10.70;;;;;;;-1.48;43.31;101451.41;5029608;28;20041;-61
2020/12/11 06:46:19;;;;;;;18.83;8.27;;;;;;;0.24;40.90;101501.88;5029771;28;20037;-61
2020/12/11 06:49:06;;;;;;;24.13;10.35;;;;;;;1.51;39.04;101497.59;5028880;28;20462;-59
2020/12/11 06:51:55;;;;;;;24.88;11.15;;;;;;;2.46;37.71;101485.31;5029113;28;20501;-59
2020/12/11 06:54:20;;;;;;;20.00;9.82;;;;;;;3.26;36.89;101492.47;5010809;28;20026;-62
2020/12/11 06:56:47;;;;;;;21.98;11.02;;;;;;;3.30;35.90;101487.03;5029257;28;20057;-57
2020/12/11 06:59:25;;;;;;;24.40;11.45;;;;;;;2.86;36.02;101486.25;5028955;28;20084;-60
2020/12/11 07:01:55;;;;;;;22.13;10.98;;;;;;;2.72;36.64;101498.03;5022276;28;20034;-58
2020/12/11 07:04:21;;;;;;;26.13;12.15;;;;;;;2.88;36.19;101487.09;5029159;28;20500;-56
2020/12/11 07:06:53;;;;;;;25.05;10.93;;;;;;;3.11;35.08;101488.34;5027342;28;20087;-58
2020/12/11 07:09:19;;;;;;;22.55;10.45;;;;;;;3.55;35.76;101499.69;5029208;28;20033;-61
2020/12/11 07:11:46;;;;;;;32.25;11.65;;;;;;;4.07;34.41;101485.16;5028841;28;20041;-60
2020/12/11 07:14:12;;;;;;;29.38;12.45;;;;;;;4.20;33.74;101480.41;5028985;28;20043;-63
2020/12/11 07:16:42;;;;;;;27.60;12.70;;;;;;;3.92;32.91;101412.25;5040412;28;20507;-61
2020/12/11 07:19:08;;;;;;;29.30;12.90;;;;;;;4.31;32.95;101463.28;5028925;28;20061;-57
2020/12/11 07:21:35;;;;;;;29.23;13.55;;;;;;;3.89;33.31;101487.38;5010878;28;20072;-61
2020/12/11 07:24:01;;;;;;;26.65;12.57;;;;;;;3.09;34.59;101464.59;5029894;28;20033;-59
2020/12/11 07:26:27;;;;;;;27.15;12.43;;;;;;;2.45;35.28;101478.28;5028261;28;20034;-58
2020/12/11 07:29:02;;;;;;;25.17;11.05;;;;;;;1.95;36.24;101483.66;5028663;28;20084;-61
2020/12/11 07:31:28;;;;;;;29.77;13.17;;;;;;;1.32;37.04;101488.19;5032017;28;20041;-58
2020/12/11 07:33:53;;;;;;;32.45;12.98;;;;;;;0.83;37.75;101496.78;5032107;28;20037;-61
2020/12/11 07:36:19;;;;;;;27.23;13.32;;;;;;;0.31;38.11;101471.06;5032126;28;20067;-59
2020/12/11 07:38:46;;;;;;;29.05;12.40;;;;;;;0.13;39.17;101504.63;5032136;28;20033;-60
2020/12/11 07:41:17;;;;;;;25.48;13.23;;;;;;;-0.27;39.54;101486.56;5030457;28;20498;-62
2020/12/11 07:43:46;;;;;;;31.55;13.50;;;;;;;-0.59;39.82;101480.69;5030824;28;20456;-59
2020/12/11 07:46:19;;;;;;;31.30;13.32;;;;;;;-1.35;40.72;101424.19;5030129;28;20049;-60
2020/12/11 07:48:50;;;;;;;30.00;13.43;;;;;;;-1.17;41.61;101495.94;5030538;28;20040;-61
2020/12/11 07:51:18;;;;;;;28.52;12.07;;;;;;;-1.39;41.47;101463.63;5010103;28;20037;-56
2020/12/11 07:53:53;;;;;;;24.88;12.35;;;;;;;-1.61;41.64;101480.34;5030564;28;20033;-60
2020/12/11 07:56:18;;;;;;;;;;;;;;;-1.48;42.24;101494.31;5029095;28;20036;-57
2020/12/11 07:58:44;;;;;;;28.63;12.85;;;;;;;-1.53;42.46;101510.97;5029639;28;19921;-60
2020/12/11 08:01:09;;;;;;;24.25;12.48;;;;;;;-1.62;42.25;101491.75;5029920;28;20124;-60
2020/12/11 08:03:35;;;;;;;32.03;12.77;;;;;;;-1.53;42.36;101501.34;5031865;28;20095;-62
2020/12/11 08:06:00;;;;;;;29.20;12.43;;;;;;;-1.36;42.21;101498.66;5032100;28;20037;-58
2020/12/11 08:08:27;;;;;;;30.60;13.48;;;;;;;-1.20;41.74;101486.31;5032062;28;20041;-59
2020/12/11 08:10:52;;;;;;;28.98;13.10;;;;;;;-1.16;41.20;101461.75;5032180;28;20042;-59
2020/12/11 08:13:21;;;;;;;32.72;12.88;;;;;;;-0.97;41.26;101484.44;5032042;28;20037;-56
2020/12/11 08:15:46;;;;;;;29.63;13.05;;;;;;;-1.05;41.36;101468.72;5032085;28;20057;-56
2020/12/11 08:18:22;;;;;;;33.42;13.32;;;;;;;-0.83;41.38;101495.75;5031769;28;20473;-61
2020/12/11 08:20:49;;;;;;;31.00;13.43;;;;;;;-0.76;40.71;101484.28;5031737;28;20058;-60
2020/12/11 08:23:22;;;;;;;32.60;13.80;;;;;;;-0.91;41.61;101487.91;5031568;28;20099;-59
2020/12/11 08:26:03;;;;;;;32.25;12.65;;;;;;;-0.92;41.60;101483.53;5031066;28;20064;-61
2020/12/11 08:28:28;;;;;;;33.25;13.77;;;;;;;-0.78;41.23;101483.44;5032270;28;20040;-60
2020/12/11 08:30:54;;;;;;;35.22;13.63;;;;;;;-0.81;41.05;101479.97;5031445;28;20037;-63
2020/12/11 08:33:19;;;;;;;27.92;12.95;;;;;;;-0.97;41.04;101489.69;5031571;28;20030;-58
2020/12/11 08:35:45;;;;;;;34.70;14.10;;;;;;;-1.07;41.78;101468.72;5025017;28;20092;-63
2020/12/11 08:38:10;;;;;;;31.00;12.90;;;;;;;-0.96;41.56;101491.47;5024878;28;20491;-60
2020/12/11 08:40:47;;;;;;;35.20;13.73;;;;;;;-1.28;41.45;101418.91;5024184;28;20038;-62
2020/12/11 08:43:21;;;;;;;31.33;13.75;;;;;;;-0.82;41.36;101484.34;5026178;28;20061;-56
2020/12/11 08:48:30;;;;;;;36.63;15.23;;;;;;;-0.61;41.55;101491.19;5031294;28;20061;-62
2020/12/11 08:51:14;;;;;;;32.75;14.52;;;;;;;-0.55;41.58;101487.66;5028699;28;20038;-60
2020/12/11 08:53:49;;;;;;;39.95;15.05;;;;;;;-0.59;41.38;101480.69;5028380;28;20060;-55
2020/12/11 08:56:14;;;;;;;32.77;14.83;;;;;;;-0.58;40.91;101474.53;5030223;28;20168;-62
2020/12/11 08:58:40;;;;;;;32.10;13.93;;;;;;;-0.54;41.04;101472.75;5031265;28;20132;-61
2020/12/11 09:01:05;;;;;;;33.20;13.90;;;;;;;-0.74;41.39;101455.38;5029854;28;20502;-61
2020/12/11 09:03:31;;;;;;;45.25;15.02;;;;;;;-0.94;41.80;101455.50;5031471;28;20056;-64
2020/12/11 09:05:56;;;;;;;31.95;15.05;;;;;;;-0.92;42.00;101465.13;5029755;28;20044;-63
2020/12/11 09:08:22;;;;;;;29.42;14.30;;;;;;;-0.90;42.14;101473.00;5027972;28;20166;-66
2020/12/11 09:10:47;;;;;;;40.38;14.98;;;;;;;-0.84;42.21;101469.44;5029844;28;20514;-63
2020/12/11 09:13:12;;;;;;;39.83;15.55;;;;;;;-0.88;42.13;101466.84;5008861;28;20041;-61
2020/12/11 09:15:38;;;;;;;36.80;15.20;;;;;;;-0.92;42.13;101469.53;5024993;28;20041;-65
2020/12/11 09:18:03;;;;;;;32.08;14.45;;;;;;;-0.92;42.27;101466.91;5027405;28;20041;-64
2020/12/11 09:20:29;;;;;;;38.10;14.93;;;;;;;-0.92;42.01;101477.41;5030601;28;20408;-66
2020/12/11 09:22:55;;;;;;;35.30;15.13;;;;;;;-0.99;42.33;101452.00;5030361;28;20033;-65
2020/12/11 09:25:21;;;;;;;36.22;15.05;;;;;;;-0.89;42.82;101480.03;5024769;28;20477;-65
2020/12/11 09:27:47;;;;;;;34.88;13.95;;;;;;;-0.89;42.59;101478.25;5030578;28;20053;-65
2020/12/11 09:35:18;;;;;;;29.60;14.15;;;;;;;-0.94;43.12;101466.03;5029863;28;20032;-65
2020/12/11 09:37:49;;;;;;;33.08;14.90;;;;;;;-1.04;43.62;101446.81;5030671;28;20037;-65
2020/12/11 09:40:20;;;;;;;40.20;16.80;;;;;;;-1.07;43.35;101433.69;5026354;28;20476;-63
2020/12/11 09:45:46;;;;;;;28.13;14.05;;;;;;;-1.09;43.60;101441.56;4973504;28;20084;-66
2020/12/11 09:48:16;;;;;;;34.42;14.40;;;;;;;-1.03;44.01;101457.28;5030198;28;20029;-65
2020/12/11 09:51:01;;;;;;;32.95;14.55;;;;;;;-1.34;44.72;101428.56;5036294;28;20562;-68
2020/12/11 09:56:05;;;;;;;32.63;15.20;;;;;;;-1.25;44.95;101442.53;5029764;28;20061;-55
2020/12/11 09:58:32;;;;;;;38.10;15.75;;;;;;;-1.37;45.49;101427.69;5029618;28;20057;-64
2020/12/11 10:00:57;;;;;;;33.15;16.00;;;;;;;-1.31;45.10;101441.69;5028698;28;20045;-63
2020/12/11 10:03:25;;;;;;;30.13;15.52;;;;;;;-1.85;45.05;101339.50;5025840;28;20084;-60
2020/12/11 10:05:50;;;;;;;34.97;15.80;;;;;;;-1.23;45.64;101430.25;5036421;28;20107;-64
2020/12/11 10:08:16;;;;;;;46.10;17.08;;;;;;;-1.21;45.80;101437.25;5028826;28;21524;-63
2020/12/11 10:10:41;;;;;;;36.70;16.25;;;;;;;-1.13;45.79;101434.59;5028965;28;20029;-66
2020/12/11 10:13:07;;;;;;;40.47;17.17;;;;;;;-1.13;45.93;101426.72;5029114;28;20793;-64
2020/12/11 10:15:33;;;;;;;33.70;16.52;;;;;;;-1.22;46.15;101416.22;5024283;28;20072;-62
2020/12/11 10:18:03;;;;;;;33.28;15.10;;;;;;;-1.07;46.50;101434.53;5028925;28;20037;-67
2020/12/11 10:20:28;;;;;;;37.42;16.35;;;;;;;-0.96;45.99;101438.88;5025302;28;20187;-67
2020/12/11 10:22:54;;;;;;;36.83;16.25;;;;;;;-0.88;46.05;101416.88;5024241;28;20120;-65
2020/12/11 10:25:20;;;;;;;45.78;17.02;;;;;;;-0.88;46.11;101434.44;5029372;28;20044;-64
2020/12/11 10:27:46;;;;;;;41.63;16.80;;;;;;;-1.27;46.16;101390.00;5029089;28;20034;-65
2020/12/11 10:30:12;;;;;;;44.15;18.40;;;;;;;-1.19;46.89;101382.06;5028110;28;20060;-67
2020/12/11 10:32:38;;;;;;;38.55;18.40;;;;;;;-1.04;47.36;101423.16;5026789;28;20115;-63
2020/12/11 10:35:05;;;;;;;42.97;17.65;;;;;;;-1.17;47.50;101423.22;5026735;28;20037;-67
2020/12/11 10:37:31;;;;;;;35.03;16.90;;;;;;;-1.25;47.48;101395.22;5024602;28;20034;-64
2020/12/11 10:39:57;;;;;;;43.35;19.15;;;;;;;-1.13;47.33;101412.69;5027965;28;20382;-63
2020/12/11 10:42:23;;;;;;;41.03;17.50;;;;;;;-1.09;47.04;101414.41;5026479;28;20341;-67
2020/12/11 10:44:49;;;;;;;36.63;16.75;;;;;;;-1.14;47.85;101413.56;5021608;28;20033;-67
2020/12/11 10:47:15;;;;;;;36.40;16.90;;;;;;;-1.14;47.40;101419.72;5012055;28;20044;-69
2020/12/11 10:49:41;;;;;;;34.63;16.58;;;;;;;-1.09;47.83;101415.28;5026141;28;20033;-64
2020/12/11 10:52:06;;;;;;;37.40;16.50;;;;;;;-1.10;47.84;101404.75;5028038;28;20087;-66
2020/12/11 10:54:32;;;;;;;36.17;17.08;;;;;;;-1.11;48.27;101403.03;5028990;28;20104;-65
2020/12/11 10:56:58;;;;;;;39.92;18.05;;;;;;;-1.06;48.49;101410.00;5028236;28;20058;-61
2020/12/11 10:59:24;;;;;;;41.15;17.88;;;;;;;-1.10;48.07;101413.53;5026831;28;20034;-66
2020/12/11 11:01:50;;;;;;;33.83;17.40;;;;;;;-1.06;48.26;101403.88;5033824;28;20062;-66
2020/12/11 11:04:16;;;;;;;31.17;17.15;;;;;;;-1.11;47.81;101401.28;5011239;28;20559;-65
2020/12/11 11:06:56;;;;;;;34.85;16.92;;;;;;;-1.03;48.18;101403.88;5020111;28;20104;-69
2020/12/11 11:28:04;;;;;;;34.50;16.88;;;;;;;-1.23;48.83;101368.06;4974402;28;20033;-69
2020/12/11 11:30:31;;;;;;;38.42;16.52;;;;;;;-1.18;48.73;101383.81;5015492;28;20045;-64
2020/12/11 11:32:57;;;;;;;33.30;15.75;;;;;;;-1.82;48.69;101267.75;5031099;28;20029;-64
2020/12/11 11:35:22;;;;;;;33.88;15.02;;;;;;;-1.17;48.57;101375.91;5031682;28;20417;-64
2020/12/11 11:37:49;;;;;;;36.20;16.85;;;;;;;-1.09;48.43;101378.47;5025249;28;20442;-71
2020/12/11 11:40:14;;;;;;;34.60;15.45;;;;;;;-1.16;48.91;101387.31;5029696;28;20124;-57
2020/12/11 11:42:41;;;;;;;31.02;16.05;;;;;;;-1.12;48.14;101382.88;5030515;28;20120;-59
2020/12/11 11:45:08;;;;;;;40.13;16.67;;;;;;;-1.31;48.52;101373.38;5032052;28;20037;-63
2020/12/11 11:47:38;;;;;;;30.27;14.88;;;;;;;-1.39;48.60;101369.94;5027806;28;20034;-64